ETHC

Celle Airport

Germany
METAR ETHC 230920Z 24019KT 9999 -RADZ BKN018 10/06 Q1017 WHT WHT TEMPO GRN
Observed Flight Rules
Oct-23 @ 09:20 UTC (37 minutes ago) Marginal Visual Flight Rules
Wind Visibility Clouds Conditions
240° at 19 knots 10,000+ meters
  • Broken at 1,800' AGL
  • Light Rain
  • Light Drizzle
Temperatures Readings
Current 10°C / 50°F
Dewpoint 6°C / 43°F
Humidity 76%
Altimeter 30.03" Hg
Pressure 1017 hPa
Elevation 52
METAR ETHC 230920Z 24019KT 9999 -RADZ BKN018 10/06 Q1017 WHT WHT TEMPO GRN
Observed Flight Rules
Oct-23 @ 09:20 UTC
(37 minutes ago)
MVFR
Wind Visibility
240° at 19 knots 10,000+ meters
Clouds
  • Broken at 1,800' AGL
Conditions
  • Light Rain
  • Light Drizzle
Temperature Dewpoint
10°C / 50°F 6°C / 43°F
Humidity Altimeter Pressure
76% 30.03" Hg 1017 hPa